sensor_id;sensor_type;location;lat;lon;timestamp;P1;durP1;ratioP1;P2;durP2;ratioP2
47599;SDS011;33323;52.124;6.018;2022-08-25T00:01:58;4.35;;;3.00;;
47599;SDS011;33323;52.124;6.018;2022-08-25T00:04:32;4.28;;;2.78;;
47599;SDS011;33323;52.124;6.018;2022-08-25T00:07:03;5.70;;;3.03;;
47599;SDS011;33323;52.124;6.018;2022-08-25T00:09:31;2.83;;;2.60;;
47599;SDS011;33323;52.124;6.018;2022-08-25T00:12:01;3.05;;;2.38;;
47599;SDS011;33323;52.124;6.018;2022-08-25T00:14:31;5.35;;;3.42;;
47599;SDS011;33323;52.124;6.018;2022-08-25T00:17:02;3.92;;;3.00;;
47599;SDS011;33323;52.124;6.018;2022-08-25T00:19:33;4.40;;;2.80;;
47599;SDS011;33323;52.124;6.018;2022-08-25T00:22:02;4.47;;;3.08;;
47599;SDS011;33323;52.124;6.018;2022-08-25T00:24:30;6.55;;;3.20;;
47599;SDS011;33323;52.124;6.018;2022-08-25T00:26:58;4.32;;;3.42;;
47599;SDS011;33323;52.124;6.018;2022-08-25T00:29:27;8.52;;;3.17;;
47599;SDS011;33323;52.124;6.018;2022-08-25T00:31:56;3.28;;;2.63;;
47599;SDS011;33323;52.124;6.018;2022-08-25T00:34:29;3.00;;;2.70;;
47599;SDS011;33323;52.124;6.018;2022-08-25T00:37:02;4.30;;;3.00;;
47599;SDS011;33323;52.124;6.018;2022-08-25T00:39:32;6.25;;;3.03;;
47599;SDS011;33323;52.124;6.018;2022-08-25T00:42:01;3.03;;;2.78;;
47599;SDS011;33323;52.124;6.018;2022-08-25T00:44:32;6.15;;;3.28;;
47599;SDS011;33323;52.124;6.018;2022-08-25T00:47:00;3.63;;;2.80;;
47599;SDS011;33323;52.124;6.018;2022-08-25T00:49:31;3.65;;;3.30;;
47599;SDS011;33323;52.124;6.018;2022-08-25T00:52:18;5.53;;;2.85;;
47599;SDS011;33323;52.124;6.018;2022-08-25T00:54:58;4.00;;;3.03;;
47599;SDS011;33323;52.124;6.018;2022-08-25T00:57:37;2.90;;;2.38;;
47599;SDS011;33323;52.124;6.018;2022-08-25T01:00:19;3.92;;;3.42;;
47599;SDS011;33323;52.124;6.018;2022-08-25T01:02:54;4.07;;;3.13;;
47599;SDS011;33323;52.124;6.018;2022-08-25T01:05:23;5.97;;;3.55;;
47599;SDS011;33323;52.124;6.018;2022-08-25T01:07:52;12.00;;;3.50;;
47599;SDS011;33323;52.124;6.018;2022-08-25T01:10:24;6.20;;;3.20;;
47599;SDS011;33323;52.124;6.018;2022-08-25T01:12:54;4.68;;;3.00;;
47599;SDS011;33323;52.124;6.018;2022-08-25T01:17:56;5.95;;;3.60;;
47599;SDS011;33323;52.124;6.018;2022-08-25T01:20:25;6.72;;;3.63;;
47599;SDS011;33323;52.124;6.018;2022-08-25T01:22:56;6.63;;;3.53;;
47599;SDS011;33323;52.124;6.018;2022-08-25T01:28:19;3.97;;;3.58;;
47599;SDS011;33323;52.124;6.018;2022-08-25T01:30:47;3.72;;;2.88;;
47599;SDS011;33323;52.124;6.018;2022-08-25T01:33:15;3.72;;;2.83;;
47599;SDS011;33323;52.124;6.018;2022-08-25T01:35:42;5.78;;;3.20;;
47599;SDS011;33323;52.124;6.018;2022-08-25T01:38:10;6.13;;;4.05;;
47599;SDS011;33323;52.124;6.018;2022-08-25T01:40:38;4.22;;;3.83;;
47599;SDS011;33323;52.124;6.018;2022-08-25T01:43:11;5.32;;;3.65;;
47599;SDS011;33323;52.124;6.018;2022-08-25T01:46:02;3.95;;;3.55;;
47599;SDS011;33323;52.124;6.018;2022-08-25T01:48:29;5.25;;;3.60;;
47599;SDS011;33323;52.124;6.018;2022-08-25T01:50:58;3.72;;;3.40;;
47599;SDS011;33323;52.124;6.018;2022-08-25T01:53:26;4.72;;;3.85;;
47599;SDS011;33323;52.124;6.018;2022-08-25T01:55:58;4.47;;;3.78;;
47599;SDS011;33323;52.124;6.018;2022-08-25T01:58:35;4.53;;;3.95;;
47599;SDS011;33323;52.124;6.018;2022-08-25T02:01:08;4.93;;;3.20;;
47599;SDS011;33323;52.124;6.018;2022-08-25T02:03:42;5.57;;;3.75;;
47599;SDS011;33323;52.124;6.018;2022-08-25T02:06:14;4.15;;;3.42;;
47599;SDS011;33323;52.124;6.018;2022-08-25T02:08:56;8.20;;;4.25;;
47599;SDS011;33323;52.124;6.018;2022-08-25T02:11:30;4.15;;;3.72;;
47599;SDS011;33323;52.124;6.018;2022-08-25T02:13:58;4.57;;;4.07;;
47599;SDS011;33323;52.124;6.018;2022-08-25T02:16:30;5.43;;;3.90;;
47599;SDS011;33323;52.124;6.018;2022-08-25T02:19:00;3.97;;;3.58;;
47599;SDS011;33323;52.124;6.018;2022-08-25T02:21:28;3.97;;;3.08;;
47599;SDS011;33323;52.124;6.018;2022-08-25T02:23:55;4.68;;;4.10;;
47599;SDS011;33323;52.124;6.018;2022-08-25T02:26:22;3.92;;;3.45;;
47599;SDS011;33323;52.124;6.018;2022-08-25T02:28:49;3.95;;;3.17;;
47599;SDS011;33323;52.124;6.018;2022-08-25T02:31:18;4.00;;;3.60;;
47599;SDS011;33323;52.124;6.018;2022-08-25T02:33:48;6.95;;;3.95;;
47599;SDS011;33323;52.124;6.018;2022-08-25T02:36:16;4.25;;;3.40;;
47599;SDS011;33323;52.124;6.018;2022-08-25T02:38:44;3.97;;;3.67;;
47599;SDS011;33323;52.124;6.018;2022-08-25T02:41:13;5.18;;;3.10;;
47599;SDS011;33323;52.124;6.018;2022-08-25T02:43:45;5.35;;;3.28;;
47599;SDS011;33323;52.124;6.018;2022-08-25T02:46:14;6.70;;;3.55;;
47599;SDS011;33323;52.124;6.018;2022-08-25T02:48:48;9.07;;;3.95;;
47599;SDS011;33323;52.124;6.018;2022-08-25T02:51:18;6.10;;;3.97;;
47599;SDS011;33323;52.124;6.018;2022-08-25T02:53:48;3.70;;;3.30;;
47599;SDS011;33323;52.124;6.018;2022-08-25T02:56:16;4.55;;;3.90;;
47599;SDS011;33323;52.124;6.018;2022-08-25T02:58:44;7.20;;;3.83;;
47599;SDS011;33323;52.124;6.018;2022-08-25T03:01:12;3.33;;;3.03;;
47599;SDS011;33323;52.124;6.018;2022-08-25T03:03:42;4.57;;;3.53;;
47599;SDS011;33323;52.124;6.018;2022-08-25T03:06:14;4.45;;;3.65;;
47599;SDS011;33323;52.124;6.018;2022-08-25T03:08:45;4.90;;;3.75;;
47599;SDS011;33323;52.124;6.018;2022-08-25T03:11:12;3.75;;;3.03;;
47599;SDS011;33323;52.124;6.018;2022-08-25T03:13:39;4.40;;;3.67;;
47599;SDS011;33323;52.124;6.018;2022-08-25T03:16:07;4.18;;;3.00;;
47599;SDS011;33323;52.124;6.018;2022-08-25T03:18:36;4.05;;;3.13;;
47599;SDS011;33323;52.124;6.018;2022-08-25T03:21:08;4.90;;;3.33;;
47599;SDS011;33323;52.124;6.018;2022-08-25T03:23:41;3.88;;;3.40;;
47599;SDS011;33323;52.124;6.018;2022-08-25T03:26:09;4.47;;;3.03;;
47599;SDS011;33323;52.124;6.018;2022-08-25T03:29:11;3.47;;;3.03;;
47599;SDS011;33323;52.124;6.018;2022-08-25T03:31:39;4.18;;;3.78;;
47599;SDS011;33323;52.124;6.018;2022-08-25T03:34:09;4.05;;;2.97;;
47599;SDS011;33323;52.124;6.018;2022-08-25T03:36:42;5.50;;;3.10;;
47599;SDS011;33323;52.124;6.018;2022-08-25T03:39:12;3.97;;;3.33;;
47599;SDS011;33323;52.124;6.018;2022-08-25T03:41:39;6.20;;;4.32;;
47599;SDS011;33323;52.124;6.018;2022-08-25T03:44:07;4.28;;;3.88;;
47599;SDS011;33323;52.124;6.018;2022-08-25T03:46:42;5.43;;;3.60;;
47599;SDS011;33323;52.124;6.018;2022-08-25T03:49:13;5.32;;;3.72;;
47599;SDS011;33323;52.124;6.018;2022-08-25T03:51:48;5.70;;;4.80;;
47599;SDS011;33323;52.124;6.018;2022-08-25T03:54:18;6.15;;;4.55;;
47599;SDS011;33323;52.124;6.018;2022-08-25T03:56:48;4.82;;;4.22;;
47599;SDS011;33323;52.124;6.018;2022-08-25T03:59:16;4.95;;;4.40;;
47599;SDS011;33323;52.124;6.018;2022-08-25T04:01:44;8.63;;;5.10;;
47599;SDS011;33323;52.124;6.018;2022-08-25T04:04:19;5.05;;;4.53;;
47599;SDS011;33323;52.124;6.018;2022-08-25T04:06:46;4.97;;;4.47;;
47599;SDS011;33323;52.124;6.018;2022-08-25T04:09:14;5.00;;;3.95;;
47599;SDS011;33323;52.124;6.018;2022-08-25T04:11:41;5.93;;;4.63;;
47599;SDS011;33323;52.124;6.018;2022-08-25T04:14:08;4.47;;;4.05;;
47599;SDS011;33323;52.124;6.018;2022-08-25T04:16:41;4.43;;;4.00;;
47599;SDS011;33323;52.124;6.018;2022-08-25T04:19:08;4.15;;;3.70;;
47599;SDS011;33323;52.124;6.018;2022-08-25T04:21:36;4.18;;;3.78;;
47599;SDS011;33323;52.124;6.018;2022-08-25T04:24:06;5.38;;;4.80;;
47599;SDS011;33323;52.124;6.018;2022-08-25T04:26:37;5.05;;;3.88;;
47599;SDS011;33323;52.124;6.018;2022-08-25T04:29:08;4.13;;;3.83;;
47599;SDS011;33323;52.124;6.018;2022-08-25T04:31:37;6.82;;;4.63;;
47599;SDS011;33323;52.124;6.018;2022-08-25T04:34:07;6.15;;;4.32;;
47599;SDS011;33323;52.124;6.018;2022-08-25T04:36:55;4.70;;;4.13;;
47599;SDS011;33323;52.124;6.018;2022-08-25T04:39:23;5.13;;;4.63;;
47599;SDS011;33323;52.124;6.018;2022-08-25T04:41:51;5.30;;;4.75;;
47599;SDS011;33323;52.124;6.018;2022-08-25T04:44:18;7.22;;;5.18;;
47599;SDS011;33323;52.124;6.018;2022-08-25T04:46:44;7.60;;;4.28;;
47599;SDS011;33323;52.124;6.018;2022-08-25T04:49:12;4.50;;;4.10;;
47599;SDS011;33323;52.124;6.018;2022-08-25T04:51:39;5.97;;;4.20;;
47599;SDS011;33323;52.124;6.018;2022-08-25T04:54:08;4.28;;;3.60;;
47599;SDS011;33323;52.124;6.018;2022-08-25T04:56:39;6.00;;;4.03;;
47599;SDS011;33323;52.124;6.018;2022-08-25T04:59:08;4.40;;;3.45;;
47599;SDS011;33323;52.124;6.018;2022-08-25T05:01:37;4.75;;;4.20;;
47599;SDS011;33323;52.124;6.018;2022-08-25T05:04:07;4.70;;;3.80;;
47599;SDS011;33323;52.124;6.018;2022-08-25T05:06:53;4.07;;;3.63;;
47599;SDS011;33323;52.124;6.018;2022-08-25T05:09:20;4.85;;;4.35;;
47599;SDS011;33323;52.124;6.018;2022-08-25T05:11:47;4.93;;;4.43;;
47599;SDS011;33323;52.124;6.018;2022-08-25T05:14:14;6.57;;;3.83;;
47599;SDS011;33323;52.124;6.018;2022-08-25T05:16:48;4.95;;;4.22;;
47599;SDS011;33323;52.124;6.018;2022-08-25T05:19:15;4.78;;;4.18;;
47599;SDS011;33323;52.124;6.018;2022-08-25T05:21:42;4.80;;;3.70;;
47599;SDS011;33323;52.124;6.018;2022-08-25T05:24:10;4.93;;;4.47;;
47599;SDS011;33323;52.124;6.018;2022-08-25T05:26:37;6.95;;;4.78;;
47599;SDS011;33323;52.124;6.018;2022-08-25T05:29:05;5.90;;;4.32;;
47599;SDS011;33323;52.124;6.018;2022-08-25T05:31:33;5.47;;;4.97;;
47599;SDS011;33323;52.124;6.018;2022-08-25T05:34:08;7.05;;;5.80;;
47599;SDS011;33323;52.124;6.018;2022-08-25T05:36:35;6.40;;;5.65;;
47599;SDS011;33323;52.124;6.018;2022-08-25T05:39:03;6.13;;;5.53;;
47599;SDS011;33323;52.124;6.018;2022-08-25T05:41:30;6.75;;;6.05;;
47599;SDS011;33323;52.124;6.018;2022-08-25T05:43:58;5.57;;;4.85;;
47599;SDS011;33323;52.124;6.018;2022-08-25T05:46:25;7.85;;;5.50;;
47599;SDS011;33323;52.124;6.018;2022-08-25T05:48:57;6.30;;;5.30;;
47599;SDS011;33323;52.124;6.018;2022-08-25T05:51:24;7.20;;;5.40;;
47599;SDS011;33323;52.124;6.018;2022-08-25T05:53:52;6.47;;;5.55;;
47599;SDS011;33323;52.124;6.018;2022-08-25T05:56:19;7.97;;;4.97;;
47599;SDS011;33323;52.124;6.018;2022-08-25T05:58:46;6.20;;;5.60;;
47599;SDS011;33323;52.124;6.018;2022-08-25T06:01:18;7.45;;;5.18;;
47599;SDS011;33323;52.124;6.018;2022-08-25T06:04:11;6.15;;;5.13;;
47599;SDS011;33323;52.124;6.018;2022-08-25T06:06:40;7.35;;;4.93;;
47599;SDS011;33323;52.124;6.018;2022-08-25T06:09:08;6.07;;;5.03;;
47599;SDS011;33323;52.124;6.018;2022-08-25T06:11:36;6.22;;;5.30;;
47599;SDS011;33323;52.124;6.018;2022-08-25T06:14:06;7.90;;;5.43;;
47599;SDS011;33323;52.124;6.018;2022-08-25T06:16:34;8.07;;;5.47;;
47599;SDS011;33323;52.124;6.018;2022-08-25T06:19:03;9.68;;;6.35;;
47599;SDS011;33323;52.124;6.018;2022-08-25T06:21:31;7.63;;;5.38;;
47599;SDS011;33323;52.124;6.018;2022-08-25T06:23:59;8.18;;;5.20;;
47599;SDS011;33323;52.124;6.018;2022-08-25T06:26:27;8.60;;;4.53;;
47599;SDS011;33323;52.124;6.018;2022-08-25T06:28:54;8.23;;;4.65;;
47599;SDS011;33323;52.124;6.018;2022-08-25T06:31:22;10.30;;;4.60;;
47599;SDS011;33323;52.124;6.018;2022-08-25T06:33:49;7.60;;;4.68;;
47599;SDS011;33323;52.124;6.018;2022-08-25T06:36:18;8.55;;;4.03;;
47599;SDS011;33323;52.124;6.018;2022-08-25T06:38:45;8.48;;;4.80;;
47599;SDS011;33323;52.124;6.018;2022-08-25T06:41:13;10.77;;;5.13;;
47599;SDS011;33323;52.124;6.018;2022-08-25T06:43:42;6.13;;;4.63;;
47599;SDS011;33323;52.124;6.018;2022-08-25T06:46:17;11.95;;;4.68;;
47599;SDS011;33323;52.124;6.018;2022-08-25T06:49:01;7.65;;;5.68;;
47599;SDS011;33323;52.124;6.018;2022-08-25T06:51:28;6.63;;;5.07;;
47599;SDS011;33323;52.124;6.018;2022-08-25T06:53:55;8.05;;;5.28;;
47599;SDS011;33323;52.124;6.018;2022-08-25T06:56:23;5.45;;;4.80;;
47599;SDS011;33323;52.124;6.018;2022-08-25T06:58:55;8.38;;;4.80;;
47599;SDS011;33323;52.124;6.018;2022-08-25T07:01:24;6.70;;;4.53;;
47599;SDS011;33323;52.124;6.018;2022-08-25T07:03:56;11.45;;;4.75;;
47599;SDS011;33323;52.124;6.018;2022-08-25T07:06:27;9.65;;;4.57;;
47599;SDS011;33323;52.124;6.018;2022-08-25T07:08:57;8.32;;;3.80;;
47599;SDS011;33323;52.124;6.018;2022-08-25T07:11:25;6.90;;;3.70;;
47599;SDS011;33323;52.124;6.018;2022-08-25T07:13:53;4.00;;;3.53;;
47599;SDS011;33323;52.124;6.018;2022-08-25T07:16:20;9.27;;;4.55;;
47599;SDS011;33323;52.124;6.018;2022-08-25T07:18:52;4.57;;;3.33;;
47599;SDS011;33323;52.124;6.018;2022-08-25T07:21:22;10.30;;;3.97;;
47599;SDS011;33323;52.124;6.018;2022-08-25T07:23:57;4.75;;;3.20;;
47599;SDS011;33323;52.124;6.018;2022-08-25T07:26:27;10.40;;;3.72;;
47599;SDS011;33323;52.124;6.018;2022-08-25T07:29:04;8.75;;;4.07;;
47599;SDS011;33323;52.124;6.018;2022-08-25T07:31:40;6.88;;;3.25;;
47599;SDS011;33323;52.124;6.018;2022-08-25T07:34:07;8.25;;;3.50;;
47599;SDS011;33323;52.124;6.018;2022-08-25T07:36:54;6.53;;;3.30;;
47599;SDS011;33323;52.124;6.018;2022-08-25T07:39:22;5.53;;;2.92;;
47599;SDS011;33323;52.124;6.018;2022-08-25T07:41:51;6.18;;;3.20;;
47599;SDS011;33323;52.124;6.018;2022-08-25T07:44:20;10.32;;;3.30;;
47599;SDS011;33323;52.124;6.018;2022-08-25T07:46:49;3.53;;;2.47;;
47599;SDS011;33323;52.124;6.018;2022-08-25T07:49:19;4.13;;;2.40;;
47599;SDS011;33323;52.124;6.018;2022-08-25T07:51:48;6.53;;;2.90;;
47599;SDS011;33323;52.124;6.018;2022-08-25T07:54:31;3.70;;;2.40;;
47599;SDS011;33323;52.124;6.018;2022-08-25T07:57:05;5.35;;;2.72;;
47599;SDS011;33323;52.124;6.018;2022-08-25T07:59:34;5.18;;;2.20;;
47599;SDS011;33323;52.124;6.018;2022-08-25T08:02:08;4.37;;;2.77;;
47599;SDS011;33323;52.124;6.018;2022-08-25T08:04:45;5.78;;;3.00;;
47599;SDS011;33323;52.124;6.018;2022-08-25T08:07:19;5.82;;;2.47;;
47599;SDS011;33323;52.124;6.018;2022-08-25T08:10:09;9.25;;;2.13;;
47599;SDS011;33323;52.124;6.018;2022-08-25T08:12:59;5.75;;;2.95;;
47599;SDS011;33323;52.124;6.018;2022-08-25T08:15:27;5.55;;;2.42;;
47599;SDS011;33323;52.124;6.018;2022-08-25T08:17:55;7.15;;;2.28;;
47599;SDS011;33323;52.124;6.018;2022-08-25T08:20:24;7.28;;;2.75;;
47599;SDS011;33323;52.124;6.018;2022-08-25T08:22:53;10.27;;;2.55;;
47599;SDS011;33323;52.124;6.018;2022-08-25T08:25:21;9.15;;;3.70;;
47599;SDS011;33323;52.124;6.018;2022-08-25T08:27:53;4.07;;;1.85;;
47599;SDS011;33323;52.124;6.018;2022-08-25T08:30:20;7.60;;;2.50;;
47599;SDS011;33323;52.124;6.018;2022-08-25T08:32:52;4.10;;;2.83;;
47599;SDS011;33323;52.124;6.018;2022-08-25T08:35:38;6.30;;;2.63;;
47599;SDS011;33323;52.124;6.018;2022-08-25T08:38:06;8.23;;;2.40;;
47599;SDS011;33323;52.124;6.018;2022-08-25T08:43:34;3.03;;;1.98;;
47599;SDS011;33323;52.124;6.018;2022-08-25T08:46:04;5.03;;;2.40;;
47599;SDS011;33323;52.124;6.018;2022-08-25T08:52:16;8.35;;;2.88;;
47599;SDS011;33323;52.124;6.018;2022-08-25T08:54:52;4.50;;;2.63;;
47599;SDS011;33323;52.124;6.018;2022-08-25T08:57:26;9.30;;;2.78;;
47599;SDS011;33323;52.124;6.018;2022-08-25T08:59:59;9.00;;;2.28;;
47599;SDS011;33323;52.124;6.018;2022-08-25T09:02:41;5.13;;;2.28;;
47599;SDS011;33323;52.124;6.018;2022-08-25T09:05:21;4.60;;;2.10;;
47599;SDS011;33323;52.124;6.018;2022-08-25T09:07:54;19.25;;;2.72;;
47599;SDS011;33323;52.124;6.018;2022-08-25T09:10:28;4.65;;;1.98;;
47599;SDS011;33323;52.124;6.018;2022-08-25T09:13:12;7.57;;;2.83;;
47599;SDS011;33323;52.124;6.018;2022-08-25T09:16:44;7.70;;;2.53;;
47599;SDS011;33323;52.124;6.018;2022-08-25T09:19:24;7.60;;;2.35;;
47599;SDS011;33323;52.124;6.018;2022-08-25T09:25:55;3.70;;;1.95;;
47599;SDS011;33323;52.124;6.018;2022-08-25T09:28:51;4.10;;;2.25;;
47599;SDS011;33323;52.124;6.018;2022-08-25T09:31:35;3.92;;;2.05;;
47599;SDS011;33323;52.124;6.018;2022-08-25T09:34:06;3.67;;;2.20;;
47599;SDS011;33323;52.124;6.018;2022-08-25T09:36:48;5.28;;;1.80;;
47599;SDS011;33323;52.124;6.018;2022-08-25T09:39:19;6.47;;;2.10;;
47599;SDS011;33323;52.124;6.018;2022-08-25T09:41:55;5.93;;;1.75;;
47599;SDS011;33323;52.124;6.018;2022-08-25T09:46:59;7.55;;;2.17;;
47599;SDS011;33323;52.124;6.018;2022-08-25T09:49:43;4.88;;;2.08;;
47599;SDS011;33323;52.124;6.018;2022-08-25T09:52:31;3.80;;;2.00;;
47599;SDS011;33323;52.124;6.018;2022-08-25T09:57:43;3.17;;;2.00;;
47599;SDS011;33323;52.124;6.018;2022-08-25T10:00:42;5.43;;;2.08;;
47599;SDS011;33323;52.124;6.018;2022-08-25T10:03:11;3.78;;;2.35;;
47599;SDS011;33323;52.124;6.018;2022-08-25T10:06:03;5.03;;;1.95;;
47599;SDS011;33323;52.124;6.018;2022-08-25T10:11:12;6.15;;;1.90;;
47599;SDS011;33323;52.124;6.018;2022-08-25T10:14:07;3.10;;;1.85;;
47599;SDS011;33323;52.124;6.018;2022-08-25T10:17:14;8.50;;;1.80;;
47599;SDS011;33323;52.124;6.018;2022-08-25T10:22:38;5.07;;;2.05;;
47599;SDS011;33323;52.124;6.018;2022-08-25T10:25:08;2.28;;;1.42;;
47599;SDS011;33323;52.124;6.018;2022-08-25T10:39:40;2.35;;;1.88;;
47599;SDS011;33323;52.124;6.018;2022-08-25T10:45:21;3.33;;;1.48;;
47599;SDS011;33323;52.124;6.018;2022-08-25T10:54:05;4.20;;;1.58;;
47599;SDS011;33323;52.124;6.018;2022-08-25T10:56:48;3.25;;;1.30;;
47599;SDS011;33323;52.124;6.018;2022-08-25T11:05:32;7.32;;;2.05;;
47599;SDS011;33323;52.124;6.018;2022-08-25T11:08:39;4.53;;;1.70;;
47599;SDS011;33323;52.124;6.018;2022-08-25T11:11:30;8.23;;;1.65;;
47599;SDS011;33323;52.124;6.018;2022-08-25T11:14:08;12.77;;;2.00;;
47599;SDS011;33323;52.124;6.018;2022-08-25T11:16:50;5.00;;;1.90;;
47599;SDS011;33323;52.124;6.018;2022-08-25T11:19:23;1.98;;;1.25;;
47599;SDS011;33323;52.124;6.018;2022-08-25T11:22:09;8.67;;;1.50;;
47599;SDS011;33323;52.124;6.018;2022-08-25T11:31:09;2.42;;;1.10;;
47599;SDS011;33323;52.124;6.018;2022-08-25T11:33:36;4.85;;;1.20;;
47599;SDS011;33323;52.124;6.018;2022-08-25T11:36:51;3.50;;;1.20;;
47599;SDS011;33323;52.124;6.018;2022-08-25T11:39:10;2.30;;;1.15;;
47599;SDS011;33323;52.124;6.018;2022-08-25T11:41:52;3.72;;;1.20;;
47599;SDS011;33323;52.124;6.018;2022-08-25T11:53:18;2.97;;;1.08;;
47599;SDS011;33323;52.124;6.018;2022-08-25T11:55:59;2.60;;;1.05;;
47599;SDS011;33323;52.124;6.018;2022-08-25T12:04:14;3.10;;;0.85;;
47599;SDS011;33323;52.124;6.018;2022-08-25T12:07:18;2.65;;;1.42;;
47599;SDS011;33323;52.124;6.018;2022-08-25T12:12:30;2.30;;;1.20;;
47599;SDS011;33323;52.124;6.018;2022-08-25T12:15:24;3.35;;;1.20;;
47599;SDS011;33323;52.124;6.018;2022-08-25T12:21:27;3.22;;;1.20;;
47599;SDS011;33323;52.124;6.018;2022-08-25T12:23:37;2.92;;;1.17;;
47599;SDS011;33323;52.124;6.018;2022-08-25T12:29:08;2.33;;;1.38;;
47599;SDS011;33323;52.124;6.018;2022-08-25T12:37:20;2.80;;;1.25;;
47599;SDS011;33323;52.124;6.018;2022-08-25T12:42:20;2.45;;;1.30;;
47599;SDS011;33323;52.124;6.018;2022-08-25T12:47:46;3.55;;;1.05;;
47599;SDS011;33323;52.124;6.018;2022-08-25T12:53:09;4.00;;;1.77;;
47599;SDS011;33323;52.124;6.018;2022-08-25T12:55:43;1.20;;;0.80;;
47599;SDS011;33323;52.124;6.018;2022-08-25T12:58:20;2.38;;;1.00;;
47599;SDS011;33323;52.124;6.018;2022-08-25T13:04:27;2.95;;;1.10;;
47599;SDS011;33323;52.124;6.018;2022-08-25T13:13:36;3.05;;;1.10;;
47599;SDS011;33323;52.124;6.018;2022-08-25T13:16:24;2.40;;;1.00;;
47599;SDS011;33323;52.124;6.018;2022-08-25T13:18:55;2.88;;;0.90;;
47599;SDS011;33323;52.124;6.018;2022-08-25T13:21:27;0.95;;;0.85;;
47599;SDS011;33323;52.124;6.018;2022-08-25T13:24:04;9.05;;;1.25;;
47599;SDS011;33323;52.124;6.018;2022-08-25T13:26:38;3.92;;;0.90;;
47599;SDS011;33323;52.124;6.018;2022-08-25T13:29:24;3.70;;;1.83;;
47599;SDS011;33323;52.124;6.018;2022-08-25T13:32:06;4.20;;;1.20;;
47599;SDS011;33323;52.124;6.018;2022-08-25T13:34:40;1.50;;;0.90;;
47599;SDS011;33323;52.124;6.018;2022-08-25T13:37:18;3.90;;;1.52;;
47599;SDS011;33323;52.124;6.018;2022-08-25T13:40:10;3.25;;;1.05;;
47599;SDS011;33323;52.124;6.018;2022-08-25T13:42:52;3.58;;;1.42;;
47599;SDS011;33323;52.124;6.018;2022-08-25T13:45:29;1.60;;;1.17;;
47599;SDS011;33323;52.124;6.018;2022-08-25T13:48:08;3.35;;;1.20;;
47599;SDS011;33323;52.124;6.018;2022-08-25T13:50:48;2.08;;;0.93;;
47599;SDS011;33323;52.124;6.018;2022-08-25T13:53:21;2.05;;;1.10;;
47599;SDS011;33323;52.124;6.018;2022-08-25T13:55:59;3.38;;;1.08;;
47599;SDS011;33323;52.124;6.018;2022-08-25T13:58:30;1.80;;;1.10;;
47599;SDS011;33323;52.124;6.018;2022-08-25T14:13:12;2.28;;;1.00;;
47599;SDS011;33323;52.124;6.018;2022-08-25T14:16:14;3.47;;;1.00;;
47599;SDS011;33323;52.124;6.018;2022-08-25T14:18:51;2.67;;;1.02;;
47599;SDS011;33323;52.124;6.018;2022-08-25T14:21:25;6.43;;;1.83;;
47599;SDS011;33323;52.124;6.018;2022-08-25T14:23:55;3.75;;;1.25;;
47599;SDS011;33323;52.124;6.018;2022-08-25T14:26:25;3.42;;;1.40;;
47599;SDS011;33323;52.124;6.018;2022-08-25T14:28:52;6.95;;;1.15;;
47599;SDS011;33323;52.124;6.018;2022-08-25T14:31:27;3.95;;;1.05;;
47599;SDS011;33323;52.124;6.018;2022-08-25T14:33:58;3.65;;;1.30;;
47599;SDS011;33323;52.124;6.018;2022-08-25T14:36:37;1.83;;;0.90;;
47599;SDS011;33323;52.124;6.018;2022-08-25T14:39:04;2.08;;;0.88;;
47599;SDS011;33323;52.124;6.018;2022-08-25T14:41:35;2.85;;;1.23;;
47599;SDS011;33323;52.124;6.018;2022-08-25T14:44:04;2.33;;;0.95;;
47599;SDS011;33323;52.124;6.018;2022-08-25T14:46:36;2.70;;;1.00;;
47599;SDS011;33323;52.124;6.018;2022-08-25T14:49:08;2.17;;;0.88;;
47599;SDS011;33323;52.124;6.018;2022-08-25T14:51:39;5.10;;;1.33;;
47599;SDS011;33323;52.124;6.018;2022-08-25T14:54:09;1.67;;;1.27;;
47599;SDS011;33323;52.124;6.018;2022-08-25T14:56:40;2.53;;;0.80;;
47599;SDS011;33323;52.124;6.018;2022-08-25T14:59:08;2.33;;;1.17;;
47599;SDS011;33323;52.124;6.018;2022-08-25T15:01:35;2.90;;;1.17;;
47599;SDS011;33323;52.124;6.018;2022-08-25T15:04:07;5.80;;;1.25;;
47599;SDS011;33323;52.124;6.018;2022-08-25T15:06:43;2.78;;;1.05;;
47599;SDS011;33323;52.124;6.018;2022-08-25T15:09:13;3.15;;;1.27;;
47599;SDS011;33323;52.124;6.018;2022-08-25T15:11:42;5.68;;;1.00;;
47599;SDS011;33323;52.124;6.018;2022-08-25T15:14:16;2.07;;;1.20;;
47599;SDS011;33323;52.124;6.018;2022-08-25T15:16:54;3.95;;;1.25;;
47599;SDS011;33323;52.124;6.018;2022-08-25T15:19:23;2.30;;;1.08;;
47599;SDS011;33323;52.124;6.018;2022-08-25T15:21:53;2.10;;;1.30;;
47599;SDS011;33323;52.124;6.018;2022-08-25T15:24:24;2.67;;;1.35;;
47599;SDS011;33323;52.124;6.018;2022-08-25T15:26:53;1.88;;;1.05;;
47599;SDS011;33323;52.124;6.018;2022-08-25T15:29:27;2.05;;;0.77;;
47599;SDS011;33323;52.124;6.018;2022-08-25T15:31:57;1.77;;;1.00;;
47599;SDS011;33323;52.124;6.018;2022-08-25T15:34:25;4.10;;;0.90;;
47599;SDS011;33323;52.124;6.018;2022-08-25T15:36:53;1.42;;;0.88;;
47599;SDS011;33323;52.124;6.018;2022-08-25T15:39:23;1.85;;;1.15;;
47599;SDS011;33323;52.124;6.018;2022-08-25T15:41:50;4.43;;;1.08;;
47599;SDS011;33323;52.124;6.018;2022-08-25T15:44:17;1.52;;;0.70;;
47599;SDS011;33323;52.124;6.018;2022-08-25T15:46:45;1.40;;;0.88;;
47599;SDS011;33323;52.124;6.018;2022-08-25T15:49:15;1.60;;;0.90;;
47599;SDS011;33323;52.124;6.018;2022-08-25T15:51:49;2.05;;;1.20;;
47599;SDS011;33323;52.124;6.018;2022-08-25T15:54:24;2.40;;;0.90;;
47599;SDS011;33323;52.124;6.018;2022-08-25T15:56:52;1.77;;;1.05;;
47599;SDS011;33323;52.124;6.018;2022-08-25T15:59:22;4.45;;;1.10;;
47599;SDS011;33323;52.124;6.018;2022-08-25T16:01:50;1.73;;;1.00;;
47599;SDS011;33323;52.124;6.018;2022-08-25T16:04:20;3.42;;;1.00;;
47599;SDS011;33323;52.124;6.018;2022-08-25T16:06:49;4.03;;;1.00;;
47599;SDS011;33323;52.124;6.018;2022-08-25T16:09:17;2.75;;;1.45;;
47599;SDS011;33323;52.124;6.018;2022-08-25T16:11:48;2.33;;;1.20;;
47599;SDS011;33323;52.124;6.018;2022-08-25T16:14:23;1.65;;;1.00;;
47599;SDS011;33323;52.124;6.018;2022-08-25T16:16:51;2.13;;;1.15;;
47599;SDS011;33323;52.124;6.018;2022-08-25T16:19:23;3.40;;;1.00;;
47599;SDS011;33323;52.124;6.018;2022-08-25T16:21:52;1.85;;;1.13;;
47599;SDS011;33323;52.124;6.018;2022-08-25T16:24:19;1.30;;;1.00;;
47599;SDS011;33323;52.124;6.018;2022-08-25T16:26:46;3.03;;;1.30;;
47599;SDS011;33323;52.124;6.018;2022-08-25T16:29:17;4.80;;;1.15;;
47599;SDS011;33323;52.124;6.018;2022-08-25T16:31:45;2.65;;;1.15;;
47599;SDS011;33323;52.124;6.018;2022-08-25T16:34:18;4.95;;;1.23;;
47599;SDS011;33323;52.124;6.018;2022-08-25T16:36:46;3.38;;;1.60;;
47599;SDS011;33323;52.124;6.018;2022-08-25T16:39:17;2.05;;;1.30;;
47599;SDS011;33323;52.124;6.018;2022-08-25T16:41:45;2.65;;;1.15;;
47599;SDS011;33323;52.124;6.018;2022-08-25T16:44:13;3.00;;;1.15;;
47599;SDS011;33323;52.124;6.018;2022-08-25T16:46:41;2.45;;;1.17;;
47599;SDS011;33323;52.124;6.018;2022-08-25T16:49:10;2.00;;;1.13;;
47599;SDS011;33323;52.124;6.018;2022-08-25T16:51:41;3.63;;;1.08;;
47599;SDS011;33323;52.124;6.018;2022-08-25T16:54:09;4.32;;;1.38;;
47599;SDS011;33323;52.124;6.018;2022-08-25T16:56:55;1.73;;;1.10;;
47599;SDS011;33323;52.124;6.018;2022-08-25T16:59:24;7.88;;;2.15;;
47599;SDS011;33323;52.124;6.018;2022-08-25T17:01:51;4.63;;;0.98;;
47599;SDS011;33323;52.124;6.018;2022-08-25T17:04:19;4.07;;;1.20;;
47599;SDS011;33323;52.124;6.018;2022-08-25T17:06:57;2.20;;;1.00;;
47599;SDS011;33323;52.124;6.018;2022-08-25T17:09:24;3.22;;;1.08;;
47599;SDS011;33323;52.124;6.018;2022-08-25T17:11:51;1.83;;;1.00;;
47599;SDS011;33323;52.124;6.018;2022-08-25T17:14:22;4.53;;;1.17;;
47599;SDS011;33323;52.124;6.018;2022-08-25T17:16:49;3.65;;;1.20;;
47599;SDS011;33323;52.124;6.018;2022-08-25T17:19:20;7.28;;;1.17;;
47599;SDS011;33323;52.124;6.018;2022-08-25T17:21:49;3.17;;;1.05;;